الصفحة الرئيسية
METAR-TAF:

METAR-TAF

مطار :

كوكشيتو, كازاخستان

دائرة عرض: 53-19-48N, خط طول: 069-35-48E, ارتفاع: 270 متر

مراقبة الطقس الحالي

تاريخ ووقت الإصدار 17 دقيقة قبل الساعة 10:00UTC
ريح 21 عقدة من الجنوب الغربي تتزايد حتى 31 عقدة
درجة الحرارة 2°درجة مئوية
الرطوبة 75%
ضغط 1011 hPa
الرؤية 10 كم أو أكثر
ملبد بالغيوم على ارتفاع 2200 قدم, مزنة ركامية.

METAR: UACK 171000Z 23011G16MPS 9999 OVC022CB 02/M02 Q1011 R20/010070 NOSIG RMK QFE735/0980

زمن: 16:17 (10:17 UTC)

توقعات

تاريخ ووقت الإصدار 2ساعات و 17 دقيقة قبل الساعة 08:00UTC
التوقعات صالحة من17 الساعة 09 UTC إلى 17 الساعة 18 UTC
ريح 16 عقدة من الجنوب الغربي تتزايد حتى 25 عقدة
الرؤية 10 كم أو أكثر
غيوم مفككة على ارتفاع 2000 قدم, مزنة ركامية.
غيوم مفككة على ارتفاع 3300 قدم
مؤقت
من 17 الساعة 09 UTC إلى 17 الساعة 15 UTC
ريح 29 عقدة من الغرب/الجنوب الغربي تتزايد حتى 39 عقدة
الرؤية: 2100 متر
غيوم مفككة على ارتفاع 700 قدم, مزنة ركامية.
زخات ثلجية خفيفة, مطر

TAF: UACK 170800Z 1709/1718 22008G13MPS 9999 BKN020CB BKN033 TEMPO 1709/1715 25015G20MPS 2100 -SHSNRA BKN007CB

أرصاد الطقس والتوقعات من أكثر من 4000 مطار (تقارير الطقس للمطار METAR والتنبؤ بالطقس بالمطارTAF).

المحطات المتاحة هي النقط الصفراء والحمراء على الخريطة.

حرك المؤشر فوق النقطة لمعرفة اسم المحطة.

ثم انقر لمعرفة أرصاد وتوقعات الطقس.

لتغيير الخارطة: اضغط على الأزرار الخضراء مع رمز الصليب الأسود للتكبير. على الزر الأخضر مع شرطة للتصغير، أو على الأسهم الخضراء للخرائط المجاورة.


METAR-TAF: